リヤド の空港の天気 - METARとTAF

キング・ハーリド国際空港(リヤド) ( OERK / RUH ) - サウジアラビア リヤド
飛行場実況気象(Metar)
観測時間09/23 02:00 AST (09/22 23:00 UTC)
風向・風速南 1m/s
視程10km以上
天気現象
なし
気温28℃
湿度30%
気圧1009hPa
METAROERK 222300Z 17002KT CAVOK 28/09 Q1009 NOSIG
過去の天気等 Google飛行場航空写真 Wunderground天気予報

過去48時間のMETAR

飛行場予報(TAF)
発表時間: 9/23 02:00 AST (9/22 23:00 UTC)
予報対象時間: 23日3時 AST ~ 24日9時 AST
風向・風速南 3m/s
視程10km以上
なし
23日9時 AST ~ 23日11時 AST に徐々に
風向・風速西南西 6m/s
23日14時 AST ~ 23日16時 AST に徐々に
風向・風速東北東 5m/s
TAF OERK 222300Z 2300/2406 19006KT CAVOK
BECMG 2306/2308 25012KT
BECMG 2311/2313 07010KT